Nebraska City, NE

3:24 AM CDT on September 30, 2016 (GMT -0500)
Nebraska City Municipal

Weather History for KAFK - November, 2013

Change the Weather History Date:

Tuesday, November 12, 2013

  Actual Average (KSDA) Record (KSDA)
Temperature  
Mean Temperature 22 °F -  
Max Temperature 32 °F 48 °F 77 °F (2005)
Min Temperature 12 °F 28 °F 0 °F (1968)
Degree Days  
Heating Degree Days 43    
Moisture  
Dew Point 9 °F    
Average Humidity 61    
Maximum Humidity 86    
Minimum Humidity 30    
Precipitation  
Precipitation 0.00 in - - ()
Sea Level Pressure  
Sea Level Pressure 30.76 in    
Wind  
Wind Speed 7 mph (West)    
Max Wind Speed 15 mph    
Max Gust Speed 21 mph    
Visibility 10 miles    
Events      
Averages and records for this station are not official NWS values.
T = Trace of Precipitation, MM = Missing Value Source: NWS Daily Summary

Daily Weather History Graph

Daily Weather History Graph

Search for Another Location

Airport or City:

Trip Planner

Search our weather history database for the weather conditions in past years. The results will help you decide how hot, cold, wet, or windy it might be!

Date:

Astronomy

Nov. 12, 2013 Rise Set
Actual Time 7:06 AM CST 5:08 PM CST
Civil Twilight 6:37 AM CST 5:37 PM CST
Nautical Twilight 6:04 AM CST 6:10 PM CST
Astronomical Twilight 5:32 AM CST 6:42 PM CST
Moon 2:24 PM CST (11/12) 1:56 AM CST (11/12)
Length of Visible Light 10h 59m
Length of Day
10h 01m
Waxing Gibbous, 76% of the Moon is Illuminated
Nov 12
Waxing Gibbous
Nov 17
Full
Nov 25
Last Quarter
Dec 2
New
Dec 9
First Quarter

Hourly Weather History & Observations

Time (CST) Temp. Windchill Dew Point Humidity Pressure Visibility Wind Dir Wind Speed Gust Speed Precip Events Conditions
12:15 AM 19.8 °F 7.7 °F 11.5 °F 70% 30.75 in 10.0 mi NNE 11.5 mph 18.4 mph N/A   Clear
12:35 AM 19.4 °F 6.6 °F 11.1 °F 70% 30.75 in 10.0 mi NNE 12.7 mph - N/A   Clear
12:55 AM 19.0 °F 6.1 °F 11.3 °F 72% 30.76 in 10.0 mi NNE 12.7 mph - N/A   Clear
1:15 AM 18.7 °F 4.6 °F 11.1 °F 72% 30.76 in 10.0 mi North 15.0 mph 20.7 mph N/A   Clear
1:35 AM 18.5 °F 6.1 °F 10.6 °F 71% 30.76 in 10.0 mi North 11.5 mph - N/A   Clear
1:55 AM 17.8 °F 5.9 °F 10.4 °F 73% 30.76 in 10.0 mi North 10.4 mph - N/A   Clear
2:15 AM 18.0 °F 4.8 °F 9.9 °F 71% 30.78 in 10.0 mi North 12.7 mph 18.4 mph N/A   Clear
2:35 AM 17.4 °F 5.4 °F 10.4 °F 74% 30.79 in 10.0 mi North 10.4 mph - N/A   Clear
2:55 AM 17.1 °F 5.0 °F 10.4 °F 75% 30.79 in 10.0 mi North 10.4 mph - N/A   Clear
3:15 AM 15.3 °F 5.4 °F 10.2 °F 80% 30.79 in 10.0 mi North 6.9 mph - N/A   Clear
3:35 AM 15.1 °F 5.2 °F 10.2 °F 81% 30.80 in 10.0 mi North 6.9 mph - N/A   Clear
3:55 AM 15.3 °F 7.9 °F 10.2 °F 80% 30.80 in 10.0 mi North 4.6 mph - N/A   Clear
4:15 AM 14.4 °F 8.6 °F 9.5 °F 81% 30.80 in 10.0 mi North 3.5 mph - N/A   Clear
4:35 AM 14.0 °F 6.5 °F 9.1 °F 81% 30.80 in 10.0 mi North 4.6 mph - N/A   Clear
4:55 AM 13.8 °F 8.0 °F 9.3 °F 82% 30.80 in 10.0 mi NNW 3.5 mph - N/A   Clear
5:15 AM 12.7 °F 5.0 °F 8.8 °F 84% 30.81 in 10.0 mi NW 4.6 mph - N/A   Clear
5:35 AM 12.2 °F 6.1 °F 8.6 °F 85% 30.81 in 10.0 mi NW 3.5 mph - N/A   Clear
5:55 AM 13.1 °F 5.4 °F 9.5 °F 86% 30.83 in 10.0 mi NNW 4.6 mph - N/A   Clear
6:15 AM 13.5 °F 4.4 °F 9.5 °F 84% 30.83 in 10.0 mi NNW 5.8 mph - N/A   Clear
6:35 AM 13.1 °F 2.8 °F 9.3 °F 85% 30.85 in 10.0 mi NNW 6.9 mph - N/A   Clear
6:55 AM 12.6 °F 3.4 °F 8.8 °F 85% 30.86 in 10.0 mi NNW 5.8 mph - N/A   Clear
7:15 AM 12.6 °F 2.2 °F 8.6 °F 84% 30.87 in 10.0 mi NNW 6.9 mph - N/A   Clear
7:35 AM 12.9 °F 5.2 °F 9.3 °F 86% 30.87 in 10.0 mi NW 4.6 mph - N/A   Clear
7:55 AM 14.2 °F 6.7 °F 10.4 °F 85% 30.87 in 10.0 mi NNW 4.6 mph - N/A   Clear
8:15 AM 15.3 °F 7.9 °F 11.1 °F 84% 30.87 in 10.0 mi NNW 4.6 mph - N/A   Clear
8:35 AM 15.8 °F 7.2 °F 11.1 °F 82% 30.88 in 10.0 mi NNW 5.8 mph - N/A   Clear
8:55 AM 16.9 °F 7.4 °F 11.3 °F 79% 30.88 in 10.0 mi North 6.9 mph - N/A   Clear
9:15 AM 17.4 °F - 10.9 °F 76% 30.88 in 10.0 mi Calm Calm - N/A   Clear
9:35 AM 18.5 °F - 11.5 °F 74% 30.87 in 10.0 mi Calm Calm - N/A   Clear
9:55 AM 19.2 °F 14.1 °F 11.3 °F 71% 30.87 in 10.0 mi North 3.5 mph - N/A   Clear
10:15 AM 19.8 °F 13.2 °F 11.3 °F 70% 30.87 in 10.0 mi NNW 4.6 mph - N/A   Clear
10:35 AM 20.8 °F - 11.1 °F 66% 30.87 in 10.0 mi Calm Calm - N/A   Clear
10:55 AM 22.1 °F - 11.1 °F 63% 30.86 in 10.0 mi Calm Calm - N/A   Clear
11:15 AM 23.7 °F 19.3 °F 10.4 °F 57% 30.86 in 10.0 mi WNW 3.5 mph - N/A   Clear
11:35 AM 24.4 °F - 10.2 °F 55% 30.85 in 10.0 mi Calm Calm - N/A   Clear
11:55 AM 25.5 °F 21.3 °F 10.9 °F 54% 30.83 in 10.0 mi West 3.5 mph - N/A   Clear
12:15 PM 26.6 °F 21.2 °F 10.4 °F 51% 30.82 in 10.0 mi West 4.6 mph - N/A   Clear
12:35 PM 27.9 °F - 9.5 °F 46% 30.80 in 10.0 mi Calm Calm - N/A   Clear
12:55 PM 28.6 °F 24.8 °F 8.2 °F 42% 30.79 in 10.0 mi West 3.5 mph - N/A   Clear
1:15 PM 29.5 °F 22.5 °F 8.4 °F 41% 30.77 in 10.0 mi SW 6.9 mph - N/A   Clear
1:35 PM 30.7 °F 24.1 °F 6.8 °F 36% 30.76 in 10.0 mi SW 6.9 mph - N/A   Clear
1:55 PM 31.1 °F 25.4 °F 6.8 °F 36% 30.75 in 10.0 mi WSW 5.8 mph - N/A   Clear
2:15 PM 32.0 °F 26.4 °F 7.3 °F 36% 30.75 in 10.0 mi West 5.8 mph - N/A   Clear
2:35 PM 32.2 °F 28.9 °F 5.9 °F 33% 30.75 in 10.0 mi West 3.5 mph - N/A   Clear
2:55 PM 32.4 °F 27.9 °F 6.1 °F 33% 30.74 in 10.0 mi WSW 4.6 mph - N/A   Clear
3:15 PM 32.2 °F 28.9 °F 5.7 °F 33% 30.73 in 10.0 mi SSW 3.5 mph - N/A   Clear
3:35 PM 32.4 °F 29.1 °F 6.4 °F 34% 30.72 in 10.0 mi West 3.5 mph - N/A   Clear
3:55 PM 32.4 °F 29.1 °F 4.1 °F 30% 30.72 in 10.0 mi SW 3.5 mph - N/A   Clear
4:15 PM 32.4 °F 26.0 °F 7.0 °F 34% 30.70 in 10.0 mi SW 6.9 mph - N/A   Clear
4:35 PM 32.0 °F 27.5 °F 7.9 °F 36% 30.70 in 10.0 mi SSW 4.6 mph - N/A   Clear
4:55 PM 30.7 °F 27.3 °F 7.3 °F 37% 30.69 in 10.0 mi SSW 3.5 mph - N/A   Clear
5:15 PM 30.0 °F 26.5 °F 7.3 °F 38% 30.67 in 10.0 mi South 3.5 mph - N/A   Clear
5:35 PM 27.3 °F 22.0 °F 8.4 °F 45% 30.66 in 10.0 mi South 4.6 mph - N/A   Clear
5:55 PM 26.6 °F 22.6 °F 8.8 °F 47% 30.66 in 10.0 mi South 3.5 mph - N/A   Clear
6:15 PM 27.1 °F 23.2 °F 7.5 °F 44% 30.66 in 10.0 mi South 3.5 mph - N/A   Clear
6:35 PM 26.2 °F 20.7 °F 7.3 °F 45% 30.66 in 10.0 mi South 4.6 mph - N/A   Clear
6:55 PM 24.4 °F 17.5 °F 8.2 °F 50% 30.66 in 10.0 mi SSW 5.8 mph - N/A   Clear
7:15 PM 23.9 °F 16.8 °F 8.4 °F 52% 30.66 in 10.0 mi SSW 5.8 mph - N/A   Clear
7:35 PM 23.4 °F 16.2 °F 8.6 °F 53% 30.66 in 10.0 mi SSW 5.8 mph - N/A   Clear
7:55 PM 24.6 °F 20.3 °F 8.6 °F 51% 30.66 in 10.0 mi SSW 3.5 mph - N/A   Clear
8:15 PM 25.5 °F 21.3 °F 8.2 °F 48% 30.66 in 10.0 mi SSW 3.5 mph - N/A   Clear
8:35 PM 22.5 °F 16.3 °F 8.8 °F 56% 30.66 in 10.0 mi SSW 4.6 mph - N/A   Clear
8:55 PM 23.5 °F 16.4 °F 8.6 °F 53% 30.66 in 10.0 mi SSW 5.8 mph - N/A   Clear
9:15 PM 21.9 °F 14.5 °F 8.4 °F 56% 30.66 in 10.0 mi SSW 5.8 mph - N/A   Clear
9:35 PM 21.2 °F 12.6 °F 9.3 °F 60% 30.66 in 10.0 mi SSW 6.9 mph - N/A   Clear
9:55 PM 22.3 °F 13.0 °F 10.4 °F 60% 30.65 in 10.0 mi SSW 8.1 mph - N/A   Clear
10:15 PM 22.6 °F 13.4 °F 10.2 °F 59% 30.64 in 10.0 mi SSW 8.1 mph - N/A   Clear
10:35 PM 22.6 °F 15.3 °F 9.5 °F 57% 30.64 in 10.0 mi SW 5.8 mph - N/A   Clear
10:55 PM 21.4 °F 12.8 °F 10.6 °F 63% 30.62 in 10.0 mi SSW 6.9 mph - N/A   Clear
11:15 PM 21.4 °F 11.1 °F 10.8 °F 64% 30.60 in 10.0 mi SSW 9.2 mph - N/A   Clear
11:35 PM 22.1 °F 10.6 °F 11.3 °F 63% 30.58 in 10.0 mi SSW 11.5 mph - N/A   Clear
11:55 PM 23.5 °F 16.4 °F 10.9 °F 59% 30.59 in 10.0 mi SSW 5.8 mph - N/A   Clear